Rueter, Missouri
Current Conditions -  °F | °C
As of 9:55 PM on Wednesday 17 Dec 2014 (Local Time) from KBBG Reporting Station
Light Rain Light Rain  
Wind Chill: 26°   Ceiling: 3600
Heat Index: 32°   Visibility: 7mi
Dew Point: 32°   Wind: 7mph
Humidity: 100%   Direction: 130°SE
Pressure: 30.25"   Gusts: NA
Location:  36.61°N, 92.87°W
Report Text: KBBG 180355Z AUTO 13006KT 7SM -RA SCT008 OVC036 00/00 A3025 RMK AO2 P0005
Loading
Personal Weather Stations






























Interactive Weather Map New forecast layout! Learn more

10-Day Weather Forecast

Advertisements
Track Severe Weather on mobile